Perrinton, Michigan
Current Conditions -  °F | °C
As of 3:14 PM on Monday 26 Jan 2015 (Local Time) from KAMN Reporting Station
Clear Clear  
Wind Chill: 14°   Ceiling: Unl
Heat Index: 22°   Visibility: 10mi
Dew Point: 10°   Wind: 6mph
Humidity: 62%   Direction: 40°NE
Pressure: 29.92"   Gusts: NA
Location:  43.18°N, 84.68°W
Report Text: KAMN 262014Z AUTO 04005KT 10SM CLR M06/M12 A2992 RMK AO2 T10571120
Loading
Personal Weather Stations






























Interactive Weather Map New forecast layout! Learn more

10-Day Weather Forecast

Advertisements
Track Severe Weather on mobile